Аркаим

Карта отелей и гостиниц, располагающихся рядом с аэропортом Аркаим :

Аркаим Челябинская область 52° 38' 34.62" N, 59° 32' 21.66" E
Аркаим Челябинская область 52° 38' 34.62" N, 59° 32' 21.66" E
Код аэродрома ИКАО: 
HCP7
Код аэродрома RU: 
ХЦП7
Координаты: 
N52.64295° E059.53935°
Превышение над уровнем моря : 
325
Основная полоса: 
35/17
Курс магнитный: 
349,6/169,6
Длина основной ВПП: 
100
Ширина основной ВПП: 
50
Покрытие основной ВПП: 
Твёрдое (асфальт)
Тип: 
Вертодром
Освещение ВПП: 
Нет
Класс аэродрома: 
Статус: 
Действующий
Принадлежность: 
ГА
Сайт: 
E-mail аэродрома: 
Страна: 
Россия
Регион: 
Челябинская область
Город: 
Дополнительная информация: 
Оператор: Археологический заповедник "Аркаим". Основан в связи с посещением заповедника Президентом страны В.В.Путиным в 2005 г.

Найти трансфер

С помощью этой формы Вы можете найти трансфер из аэропорта Аркаим в город, аэропорт или вокзал:

Карта места

Javascript is required to view this map.

Погода в аэропортах:

Авиационная погода в Москва - Шереметьево

Регион: 
Погода METAR: 
UUEE 141730Z 03008G13MPS 7000 -SHRA BKN020CB 16/14 Q1003 RETSRA R06R/290251 TEMPO 02011G19MPS 1000 TSRA
Время наблюдения: 
2020-07-14T17:30:00Z
Температура C: 
16.0
Точка росы: 
14.0
Направление ветра: 
30
Скорость ветра: 
16
Метеорологическая видимость: 
4.35
Явления погоды: 
-SHRA
Условия полета: 
MVFR
Аэропорт подробнее: 

Авиационная погода в аэропорту Новый

Регион: 
Погода METAR: 
UHHH 141730Z VRB01MPS 3600 BR NSC 17/15 Q1004 R23L/090060 NOSIG RMK QBB050 QFE747/0996
Время наблюдения: 
2020-07-14T17:30:00Z
Температура C: 
17.0
Точка росы: 
15.0
Направление ветра: 
0
Скорость ветра: 
2
Метеорологическая видимость: 
2.24
Явления погоды: 
BR
Условия полета: 
IFR
Аэропорт подробнее: 

Авиационная погода в Челябинске

Регион: 
Погода METAR: 
USCC 141730Z 11003MPS 5000 FU FEW040CB 26/14 Q1017 R09/000060 NOSIG RMK QFE742
Время наблюдения: 
2020-07-14T17:30:00Z
Температура C: 
26.0
Точка росы: 
14.0
Направление ветра: 
110
Скорость ветра: 
6
Метеорологическая видимость: 
3.11
Явления погоды: 
FU
Условия полета: 
MVFR
Аэропорт подробнее: 

Авиационная погода в Ханты-Мансийске

Регион: 
Погода METAR: 
USHH 141730Z 14004MPS 9999 -RA NSC 20/13 Q1019 R06/010060 TEMPO 3000 -TSRA BKN010CB
Время наблюдения: 
2020-07-14T17:30:00Z
Температура C: 
20.0
Точка росы: 
13.0
Направление ветра: 
140
Скорость ветра: 
8
Метеорологическая видимость: 
6.21
Явления погоды: 
-RA
Условия полета: 
VFR
Аэропорт подробнее: